^^
Saratoga-Weather Station Historical Data
Daily Summary for July 14, 2020 Units:  English    Metric   Both
Daily Weekly Monthly Yearly Custom
  High: Low: Average:
Temperature: 69.4 °F 58.5 °F 63.5 °F
Dew Point: 59.7 °F 55.4 °F 57.4 °F
Humidity: 96% 66% 81%
Wind Speed: 16mph 0mph 3.3mph
Wind Gust: 16mph - -
Wind- - West
Pressure: 30 in 29.9 in -
Precipitation: 0 in    
Historical Graphs
 
 
Tabular Data for July 14, 2020
Time Temperature Dew Point Pressure Wind Wind Speed Wind Gust Humidity Rainfall Rate (Hourly) solar
00:03 58.6 °F 57.2 °F 29.9 in Calm     95% 0 in 0 W/m2
00:08 58.6 °F 57.2 °F 29.9 in Calm     95% 0 in 0 W/m2
00:13 58.6 °F 57.2 °F 29.9 in Calm     95% 0 in 0 W/m2
00:18 58.6 °F 57.6 °F 29.9 in Calm     96% 0 in 0 W/m2
00:23 58.6 °F 57.6 °F 29.9 in Calm     96% 0 in 0 W/m2
00:28 58.5 °F 57.4 °F 29.9 in Calm     96% 0 in 0 W/m2
00:33 58.5 °F 57.4 °F 29.9 in Calm     96% 0 in 0 W/m2
00:39 58.6 °F 57.6 °F 29.9 in Calm     96% 0 in 0 W/m2
00:44 58.6 °F 57.6 °F 29.9 in West 2.9 mph 4 mph 96% 0 in 0 W/m2
00:49 59.2 °F 58.1 °F 29.9 in Calm     96% 0 in 0 W/m2
00:54 59.5 °F 58.5 °F 29.9 in West 0.9 mph 4 mph 96% 0 in 0 W/m2
00:59 60.1 °F 59 °F 29.9 in West 2.9 mph 3 mph 96% 0 in 0 W/m2
01:04 60.3 °F 59.2 °F 29.9 in SSW 0.9 mph 7 mph 96% 0 in 0 W/m2
01:09 60.4 °F 59.4 °F 29.9 in Calm   2 mph 96% 0 in 0 W/m2
01:14 60.6 °F 59.5 °F 29.9 in WNW 6 mph 6 mph 96% 0 in 0 W/m2
01:19 60.8 °F 59.4 °F 29.9 in West 2 mph 4 mph 95% 0 in 0 W/m2
01:24 61 °F 59.5 °F 29.9 in NE 0.9 mph 3 mph 95% 0 in 0 W/m2
01:29 61.2 °F 59.4 °F 29.9 in WSW 0.9 mph 3 mph 94% 0 in 0 W/m2
01:34 61.3 °F 59.5 °F 29.9 in WNW 0.9 mph 4 mph 94% 0 in 0 W/m2
01:39 61.5 °F 59.5 °F 29.9 in NNW 2 mph 2 mph 93% 0 in 0 W/m2
01:44 61.7 °F 59.7 °F 29.9 in WSW 0.9 mph 2 mph 93% 0 in 0 W/m2
01:49 61.7 °F 59.4 °F 29.9 in NW 0.9 mph 1 mph 92% 0 in 0 W/m2
01:54 61.7 °F 59.4 °F 29.9 in Calm   1 mph 92% 0 in 0 W/m2
01:59 61.5 °F 59.2 °F 29.9 in NW 0.9 mph 1 mph 92% 0 in 0 W/m2
02:04 61.5 °F 59.2 °F 29.9 in WNW 2 mph 3 mph 92% 0 in 0 W/m2
02:09 61.5 °F 59.2 °F 29.9 in West 2 mph 3 mph 92% 0 in 0 W/m2
02:14 61.5 °F 59.2 °F 29.9 in NE 0.9 mph 2 mph 92% 0 in 0 W/m2
02:19 61.3 °F 59 °F 29.9 in Calm   1 mph 92% 0 in 0 W/m2
02:24 61.3 °F 59 °F 29.9 in Calm     92% 0 in 0 W/m2
02:29 61.2 °F 59.2 °F 29.9 in WSW 0.9 mph 2 mph 93% 0 in 0 W/m2
02:34 61 °F 59 °F 29.9 in Calm     93% 0 in 0 W/m2
02:39 61 °F 59 °F 29.9 in West 0.9 mph 3 mph 93% 0 in 0 W/m2
02:44 61 °F 59 °F 29.9 in WNW 0.9 mph 3 mph 93% 0 in 0 W/m2
02:50 61.2 °F 59.2 °F 29.9 in West 2.9 mph 3 mph 93% 0 in 0 W/m2
02:55 61.2 °F 59.2 °F 29.9 in WNW 2.9 mph 4 mph 93% 0 in 0 W/m2
03:00 61.2 °F 59.2 °F 29.9 in West 2 mph 4 mph 93% 0 in 0 W/m2
03:05 61.3 °F 59.4 °F 29.9 in West 2 mph 3 mph 93% 0 in 0 W/m2
03:10 61.3 °F 59 °F 29.9 in West 6 mph 6 mph 92% 0 in 0 W/m2
03:15 61.5 °F 59.2 °F 29.9 in WSW 2.9 mph 4 mph 92% 0 in 0 W/m2
03:20 61.5 °F 58.8 °F 29.9 in West 4 mph 7 mph 91% 0 in 0 W/m2
03:25 61.7 °F 59 °F 29.9 in SSW 4 mph 5 mph 91% 0 in 0 W/m2
03:30 61.5 °F 58.8 °F 29.9 in WNW 2 mph 8 mph 91% 0 in 0 W/m2
03:35 61.7 °F 59 °F 29.9 in SSW 4 mph 9 mph 91% 0 in 0 W/m2
03:40 61.7 °F 58.8 °F 29.9 in West 8.1 mph 12 mph 90% 0 in 0 W/m2
03:45 61.9 °F 59 °F 29.9 in WSW 12.1 mph 12 mph 90% 0 in 0 W/m2
03:50 61.9 °F 58.6 °F 29.9 in WNW 4.9 mph 10 mph 89% 0 in 0 W/m2
03:55 61.9 °F 58.6 °F 29.9 in SW 4 mph 6 mph 89% 0 in 0 W/m2
04:00 61.7 °F 58.1 °F 29.9 in WNW 8.1 mph 10 mph 88% 0 in 0 W/m2
04:10 61.7 °F 57.7 °F 29.9 in West 6 mph 12 mph 87% 0 in 0 W/m2
04:15 61.5 °F 57.6 °F 29.9 in West 11 mph 14 mph 87% 0 in 0 W/m2
04:20 61.5 °F 57.9 °F 29.9 in SW 4.9 mph 11 mph 88% 0 in 0 W/m2
04:25 61.3 °F 57.7 °F 29.9 in West 6 mph 9 mph 88% 0 in 0 W/m2
04:30 61.2 °F 57.6 °F 29.9 in West 12.1 mph 15 mph 88% 0 in 0 W/m2
04:35 61.2 °F 57.2 °F 29.9 in WSW 10.1 mph 10 mph 87% 0 in 0 W/m2
04:40 61 °F 57 °F 29.9 in West 6.9 mph 10 mph 87% 0 in 0 W/m2
04:45 61 °F 57 °F 29.9 in WNW 10.1 mph 15 mph 87% 0 in 0 W/m2
04:50 60.8 °F 56.8 °F 29.9 in NW 4.9 mph 12 mph 87% 0 in 0 W/m2
04:55 60.6 °F 56.7 °F 29.9 in WNW 4.9 mph 11 mph 87% 0 in 0 W/m2
05:00 60.6 °F 56.7 °F 29.9 in West 6.9 mph 10 mph 87% 0 in 0 W/m2
05:05 60.4 °F 56.5 °F 29.9 in West 6.9 mph 15 mph 87% 0 in 0 W/m2
05:10 60.4 °F 56.5 °F 29.9 in WNW 4 mph 9 mph 87% 0 in 0 W/m2
05:15 60.3 °F 56.1 °F 29.9 in NW 10.1 mph 10 mph 86% 0 in 0 W/m2
05:20 60.3 °F 56.3 °F 29.9 in West 11 mph 14 mph 87% 0 in 0 W/m2
05:25 60.1 °F 56.1 °F 29.9 in WNW 4.9 mph 8 mph 87% 0 in 0 W/m2
05:30 60.1 °F 56.1 °F 29.9 in WSW 4.9 mph 14 mph 87% 0 in 0 W/m2
05:36 60.1 °F 55.9 °F 29.9 in WSW 14.1 mph 14 mph 86% 0 in 0 W/m2
05:41 60.1 °F 56.1 °F 29.9 in West 6 mph 10 mph 87% 0 in 0 W/m2
05:46 59.7 °F 55.8 °F 29.9 in WSW 16 mph 16 mph 87% 0 in 5 W/m2
05:51 59.7 °F 55.8 °F 29.9 in West 10.1 mph 11 mph 87% 0 in 7 W/m2
05:56 59.7 °F 55.8 °F 29.9 in West 8.9 mph 12 mph 87% 0 in 9 W/m2
06:01 59.5 °F 55.6 °F 29.9 in WSW 13 mph 13 mph 87% 0 in 12 W/m2
06:06 59.5 °F 55.6 °F 29.9 in WNW 4.9 mph 12 mph 87% 0 in 14 W/m2
06:11 59.5 °F 55.6 °F 29.9 in WSW 8.1 mph 12 mph 87% 0 in 16 W/m2
06:16 59.5 °F 55.6 °F 29.9 in NW 4.9 mph 9 mph 87% 0 in 19 W/m2
06:21 59.4 °F 55.4 °F 29.9 in SW 8.9 mph 12 mph 87% 0 in 21 W/m2
06:26 59.4 °F 55.4 °F 29.9 in WNW 4 mph 12 mph 87% 0 in 25 W/m2
06:31 59.4 °F 55.4 °F 29.9 in West 8.9 mph 11 mph 87% 0 in 30 W/m2
06:36 59.4 °F 55.4 °F 29.9 in West 2.9 mph 12 mph 87% 0 in 32 W/m2
06:42 59.4 °F 55.4 °F 29.9 in WNW 6.9 mph 9 mph 87% 0 in 37 W/m2
06:47 59.4 °F 55.8 °F 29.9 in West 6.9 mph 8 mph 88% 0 in 44 W/m2
06:52 59.2 °F 55.6 °F 29.9 in West 4 mph 12 mph 88% 0 in 49 W/m2
06:57 59.2 °F 55.6 °F 29.9 in WSW 4 mph 8 mph 88% 0 in 56 W/m2
07:02 59.2 °F 55.6 °F 29.9 in West 4 mph 12 mph 88% 0 in 62 W/m2
07:07 59.2 °F 55.6 °F 29.9 in NW 6.9 mph 9 mph 88% 0 in 67 W/m2
07:12 59.2 °F 55.6 °F 29.9 in West 14.1 mph 16 mph 88% 0 in 72 W/m2
07:17 59 °F 55.4 °F 29.9 in SW 6 mph 11 mph 88% 0 in 77 W/m2
07:22 59 °F 55.4 °F 29.9 in SW 4 mph 16 mph 88% 0 in 79 W/m2
07:27 59 °F 55.4 °F 29.9 in WNW 2 mph 8 mph 88% 0 in 84 W/m2
07:32 59 °F 55.4 °F 29.9 in WNW 4.9 mph 10 mph 88% 0 in 90 W/m2
07:37 59 °F 55.4 °F 29.9 in West 6 mph 7 mph 88% 0 in 93 W/m2
07:42 59 °F 55.8 °F 29.9 in WNW 2.9 mph 6 mph 89% 0 in 102 W/m2
07:47 59 °F 55.8 °F 29.9 in WNW 4.9 mph 11 mph 89% 0 in 109 W/m2
07:52 59 °F 55.8 °F 29.9 in West 4 mph 4 mph 89% 0 in 116 W/m2
07:57 59.2 °F 55.9 °F 29.9 in NNW 4.9 mph 12 mph 89% 0 in 127 W/m2
08:07 59.2 °F 55.6 °F 29.9 in SW 6 mph 12 mph 88% 0 in 144 W/m2
08:12 59.4 °F 56.1 °F 29.9 in NW 4 mph 6 mph 89% 0 in 144 W/m2
08:17 59.4 °F 56.1 °F 29.9 in WNW 2.9 mph 8 mph 89% 0 in 158 W/m2
08:22 59.5 °F 55.9 °F 29.9 in West 2 mph 6 mph 88% 0 in 181 W/m2
08:27 59.7 °F 56.5 °F 29.9 in West 8.9 mph 9 mph 89% 0 in 202 W/m2
08:32 59.9 °F 56.3 °F 29.9 in WNW 2 mph 4 mph 88% 0 in 209 W/m2
08:38 60.1 °F 56.5 °F 30 in WNW 2 mph 9 mph 88% 0 in 218 W/m2
08:43 60.3 °F 56.7 °F 30 in West 2 mph 8 mph 88% 0 in 225 W/m2
08:48 60.4 °F 56.8 °F 30 in West 2.9 mph 9 mph 88% 0 in 236 W/m2
08:53 60.4 °F 56.8 °F 30 in WNW 0.9 mph 5 mph 88% 0 in 244 W/m2
08:58 60.6 °F 57 °F 30 in WNW 2 mph 3 mph 88% 0 in 267 W/m2
09:03 60.8 °F 57.2 °F 30 in WNW 0.9 mph 4 mph 88% 0 in 267 W/m2
09:08 61 °F 57 °F 30 in WNW 2.9 mph 4 mph 87% 0 in 279 W/m2
09:13 61.2 °F 57.2 °F 30 in WSW 4.9 mph 9 mph 87% 0 in 290 W/m2
09:18 61.2 °F 57.2 °F 30 in NW 6 mph 8 mph 87% 0 in 260 W/m2
09:23 61.2 °F 57.2 °F 30 in NW 4.9 mph 6 mph 87% 0 in 250 W/m2
09:28 61.3 °F 57.4 °F 30 in SW 4 mph 4 mph 87% 0 in 241 W/m2
09:33 61.5 °F 57.4 °F 30 in WNW 4 mph 4 mph 86% 0 in 313 W/m2
09:38 61.5 °F 57.4 °F 30 in SW 4 mph 4 mph 86% 0 in 257 W/m2
09:43 61.7 °F 57.4 °F 30 in NW 0.9 mph 4 mph 86% 0 in 216 W/m2
09:48 61.7 °F 57.2 °F 30 in West 0.9 mph 5 mph 85% 0 in 197 W/m2
09:53 61.5 °F 57.4 °F 30 in WSW 2.9 mph 5 mph 86% 0 in 190 W/m2
09:58 61.7 °F 57.4 °F 30 in NNW 0.9 mph 4 mph 86% 0 in 185 W/m2
10:03 61.7 °F 57.4 °F 30 in WSW 2 mph 6 mph 86% 0 in 176 W/m2
10:08 61.7 °F 57.4 °F 30 in WNW 2.9 mph 6 mph 86% 0 in 199 W/m2
10:13 61.9 °F 57.6 °F 30 in WNW 2 mph 4 mph 86% 0 in 165 W/m2
10:19 61.9 °F 57.6 °F 30 in Calm   6 mph 86% 0 in 183 W/m2
10:24 61.9 °F 57.6 °F 30 in WNW 4 mph 4 mph 86% 0 in 199 W/m2
10:29 62.1 °F 57.7 °F 30 in WNW 4 mph 8 mph 86% 0 in 211 W/m2
10:34 62.1 °F 57.7 °F 30 in Calm   4 mph 86% 0 in 213 W/m2
10:39 62.1 °F 57.6 °F 30 in WNW 2 mph 8 mph 85% 0 in 206 W/m2
10:44 62.1 °F 57.6 °F 30 in WSW 4 mph 4 mph 85% 0 in 241 W/m2
10:49 62.2 °F 57.7 °F 30 in West 4 mph 4 mph 85% 0 in 236 W/m2
10:54 62.2 °F 57.7 °F 30 in NNW 4 mph 5 mph 85% 0 in 181 W/m2
10:59 62.4 °F 57.9 °F 30 in West 4 mph 8 mph 85% 0 in 262 W/m2
11:04 62.6 °F 58.1 °F 30 in West 2.9 mph 3 mph 85% 0 in 285 W/m2
11:09 62.8 °F 57.9 °F 30 in West 2.9 mph 7 mph 84% 0 in 174 W/m2
11:14 62.8 °F 57.9 °F 30 in WNW 4.9 mph 7 mph 84% 0 in 276 W/m2
11:19 62.8 °F 58.3 °F 30 in WNW 2.9 mph 4 mph 85% 0 in 248 W/m2
11:24 63 °F 58.1 °F 30 in NW 0.9 mph 3 mph 84% 0 in 171 W/m2
11:29 63.1 °F 58.3 °F 30 in WSW 2.9 mph 4 mph 84% 0 in 200 W/m2
11:34 63.1 °F 57.9 °F 30 in West 4 mph 5 mph 83% 0 in 156 W/m2
11:39 63.1 °F 57.6 °F 30 in WNW 2 mph 3 mph 82% 0 in 83 W/m2
11:49 63.1 °F 57.9 °F 30 in WSW 6.9 mph 7 mph 83% 0 in 272 W/m2
11:54 63.3 °F 57.7 °F 30 in West 2.9 mph 6 mph 82% 0 in 258 W/m2
11:59 63.5 °F 57.9 °F 30 in WNW 2.9 mph 3 mph 82% 0 in 193 W/m2
12:04 63.9 °F 58.3 °F 30 in WNW 2 mph 4 mph 82% 0 in 241 W/m2
12:09 64 °F 58.1 °F 30 in West 2.9 mph 7 mph 81% 0 in 322 W/m2
12:14 64 °F 58.1 °F 30 in West 4 mph 6 mph 81% 0 in 229 W/m2
12:19 64.2 °F 58.3 °F 30 in NW 2.9 mph 5 mph 81% 0 in 241 W/m2
12:24 64.4 °F 58.5 °F 30 in WNW 2 mph 4 mph 81% 0 in 434 W/m2
12:29 64.8 °F 58.5 °F 30 in WNW 2 mph 4 mph 80% 0 in 403 W/m2
12:34 64.9 °F 58.3 °F 30 in West 2 mph 4 mph 79% 0 in 313 W/m2
12:39 65.1 °F 58.5 °F 30 in West 2 mph 6 mph 79% 0 in 244 W/m2
12:44 65.1 °F 58.1 °F 30 in WNW 2.9 mph 6 mph 78% 0 in 264 W/m2
12:49 64.9 °F 57.9 °F 30 in NW 2 mph 5 mph 78% 0 in 269 W/m2
12:54 64.9 °F 58.3 °F 30 in NNW 2.9 mph 6 mph 79% 0 in 223 W/m2
12:59 65.1 °F 58.1 °F 30 in NW 4.9 mph 5 mph 78% 0 in 276 W/m2
13:04 65.1 °F 58.5 °F 30 in West 0.9 mph 3 mph 79% 0 in 394 W/m2
13:09 65.7 °F 59 °F 30 in WNW 6 mph 7 mph 79% 0 in 519 W/m2
13:14 65.8 °F 58.8 °F 30 in WNW 2.9 mph 8 mph 78% 0 in 455 W/m2
13:19 66.4 °F 59 °F 30 in WNW 2.9 mph 3 mph 77% 0 in 550 W/m2
13:24 66.7 °F 59 °F 30 in West 2 mph 4 mph 76% 0 in 482 W/m2
13:29 67.3 °F 58.6 °F 30 in WNW 2 mph 7 mph 74% 0 in 520 W/m2
13:34 67.6 °F 58.6 °F 30 in WSW 0.9 mph 4 mph 73% 0 in 526 W/m2
13:39 67.6 °F 58.6 °F 30 in NW 0.9 mph 4 mph 73% 0 in 510 W/m2
13:44 67.8 °F 58.5 °F 30 in West 2 mph 7 mph 72% 0 in 844 W/m2
13:49 68.4 °F 59 °F 30 in North 2 mph 7 mph 72% 0 in 343 W/m2
13:54 68.2 °F 58.8 °F 30 in North 2 mph 4 mph 72% 0 in 250 W/m2
13:59 67.8 °F 58.5 °F 30 in NNW 4 mph 7 mph 72% 0 in 283 W/m2
14:04 67.6 °F 57.9 °F 30 in WNW 0.9 mph 7 mph 71% 0 in 309 W/m2
14:09 67.6 °F 58.3 °F 30 in WNW 0.9 mph 6 mph 72% 0 in 334 W/m2
14:15 67.6 °F 57.9 °F 30 in NNW 4 mph 7 mph 71% 0 in 338 W/m2
14:20 67.8 °F 58.1 °F 30 in WSW 4 mph 8 mph 71% 0 in 392 W/m2
14:25 68.2 °F 58.5 °F 30 in NW 4.9 mph 5 mph 71% 0 in 457 W/m2
14:30 68.4 °F 57.7 °F 30 in WSW 2.9 mph 9 mph 69% 0 in 434 W/m2
14:35 68.5 °F 57.6 °F 30 in SW 2 mph 5 mph 68% 0 in 345 W/m2
14:40 68.5 °F 58.3 °F 30 in WNW 2.9 mph 6 mph 70% 0 in 302 W/m2
14:45 68.5 °F 58.3 °F 30 in WNW 2.9 mph 6 mph 70% 0 in 371 W/m2
14:50 68.7 °F 58.5 °F 30 in NNW 2.9 mph 3 mph 70% 0 in 489 W/m2
14:55 68.9 °F 58.3 °F 30 in WNW 0.9 mph 4 mph 69% 0 in 380 W/m2
15:00 69.1 °F 58.5 °F 30 in West 6 mph 6 mph 69% 0 in 422 W/m2
15:05 69.1 °F 58.5 °F 30 in WNW 4.9 mph 10 mph 69% 0 in 468 W/m2
15:15 68.7 °F 58.1 °F 30 in WNW 4 mph 7 mph 69% 0 in 432 W/m2
15:20 68.9 °F 58.6 °F 30 in North 4 mph 6 mph 70% 0 in 454 W/m2
15:25 69.3 °F 58.3 °F 30 in West 0.9 mph 4 mph 68% 0 in 475 W/m2
15:30 69.4 °F 58.5 °F 30 in WNW 2.9 mph 5 mph 68% 0 in 534 W/m2
15:35 69.4 °F 58.5 °F 30 in SW 6 mph 9 mph 68% 0 in 482 W/m2
15:41 69.4 °F 58.5 °F 30 in NW 2.9 mph 7 mph 68% 0 in 401 W/m2
15:46 69.3 °F 58.3 °F 30 in WNW 2 mph 4 mph 68% 0 in 403 W/m2
15:51 69.3 °F 58.3 °F 30 in WSW 8.1 mph 8 mph 68% 0 in 404 W/m2
15:56 69.1 °F 58.8 °F 30 in NW 2 mph 3 mph 70% 0 in 415 W/m2
16:01 69.1 °F 58.1 °F 30 in WNW 4.9 mph 9 mph 68% 0 in 399 W/m2
16:06 68.9 °F 57.9 °F 30 in WNW 4.9 mph 12 mph 68% 0 in 350 W/m2
16:11 68.7 °F 58.1 °F 30 in WSW 6.9 mph 9 mph 69% 0 in 323 W/m2
16:16 68.5 °F 57.6 °F 30 in WNW 4.9 mph 12 mph 68% 0 in 318 W/m2
16:21 68.5 °F 57.6 °F 30 in NW 2 mph 4 mph 68% 0 in 316 W/m2
16:26 68.5 °F 56.7 °F 30 in NW 2.9 mph 10 mph 66% 0 in 345 W/m2
16:31 68.9 °F 57.9 °F 30 in West 2 mph 7 mph 68% 0 in 394 W/m2
16:36 69.1 °F 57.7 °F 30 in WNW 6.9 mph 7 mph 67% 0 in 367 W/m2
16:41 69.1 °F 57.7 °F 30 in West 4 mph 12 mph 67% 0 in 392 W/m2
16:46 68.9 °F 57.6 °F 30 in West 6.9 mph 12 mph 67% 0 in 338 W/m2
16:51 68.7 °F 57.7 °F 30 in West 2.9 mph 8 mph 68% 0 in 327 W/m2
16:56 68.7 °F 57.7 °F 30 in WNW 4 mph 12 mph 68% 0 in 320 W/m2
17:01 68.7 °F 57.7 °F 30 in WNW 2 mph 4 mph 68% 0 in 297 W/m2
17:06 68.7 °F 58.1 °F 30 in WSW 4 mph 7 mph 69% 0 in 264 W/m2
17:11 68.7 °F 58.1 °F 30 in West 2.9 mph 7 mph 69% 0 in 257 W/m2
17:16 68.5 °F 57.6 °F 30 in West 6 mph 7 mph 68% 0 in 246 W/m2
17:21 68.5 °F 57.6 °F 30 in WSW 4.9 mph 7 mph 68% 0 in 232 W/m2
17:26 68.5 °F 57.9 °F 30 in West 4 mph 9 mph 69% 0 in 214 W/m2
17:31 68.4 °F 57.4 °F 30 in West 8.9 mph 10 mph 68% 0 in 190 W/m2
17:36 68.2 °F 56.3 °F 30 in West 2.9 mph 8 mph 66% 0 in 172 W/m2
17:41 68.2 °F 56.3 °F 30 in WNW 6 mph 8 mph 66% 0 in 169 W/m2
17:46 68.2 °F 56.8 °F 30 in West 4 mph 6 mph 67% 0 in 163 W/m2
17:51 68 °F 56.3 °F 30 in West 6 mph 8 mph 66% 0 in 149 W/m2
17:56 68 °F 56.7 °F 30 in WNW 2 mph 3 mph 67% 0 in 135 W/m2
18:01 67.8 °F 56.5 °F 30 in WNW 2 mph 7 mph 67% 0 in 132 W/m2
18:06 67.8 °F 56.1 °F 30 in West 2.9 mph 6 mph 66% 0 in 127 W/m2
18:11 67.6 °F 56.3 °F 30 in West 4 mph 7 mph 67% 0 in 120 W/m2
18:16 67.6 °F 56.3 °F 30 in West 2.9 mph 4 mph 67% 0 in 109 W/m2
18:21 67.5 °F 56.1 °F 30 in West 0.9 mph 4 mph 67% 0 in 97 W/m2
18:26 67.5 °F 56.1 °F 30 in West 2.9 mph 4 mph 67% 0 in 90 W/m2
18:31 67.5 °F 56.5 °F 30 in West 0.9 mph 6 mph 68% 0 in 88 W/m2
18:37 67.3 °F 56.3 °F 30 in WSW 4 mph 7 mph 68% 0 in 84 W/m2
18:42 67.3 °F 56.3 °F 30 in Calm   3 mph 68% 0 in 79 W/m2
18:47 67.3 °F 56.3 °F 30 in NW 2.9 mph 3 mph 68% 0 in 74 W/m2
18:52 67.1 °F 56.7 °F 30 in WNW 2 mph 3 mph 69% 0 in 77 W/m2
18:57 66.9 °F 56.5 °F 30 in West 2.9 mph 4 mph 69% 0 in 77 W/m2
19:02 66.9 °F 56.8 °F 30 in West 6.9 mph 7 mph 70% 0 in 72 W/m2
19:07 66.9 °F 56.8 °F 30 in NNW 0.9 mph 4 mph 70% 0 in 70 W/m2
19:12 66.7 °F 56.3 °F 30 in WNW 5 mph 5 mph 69% 0 in 67 W/m2
19:17 66.6 °F 56.5 °F 30 in WNW 2 mph 4 mph 70% 0 in 67 W/m2
19:22 66.6 °F 56.5 °F 30 in West 2.9 mph 3 mph 70% 0 in 65 W/m2
19:27 66.4 °F 56.7 °F 30 in West 2 mph 3 mph 71% 0 in 60 W/m2
19:32 66.4 °F 56.7 °F 30 in West 2.9 mph 3 mph 71% 0 in 56 W/m2
19:37 66.4 °F 56.7 °F 30 in WNW 2.9 mph 4 mph 71% 0 in 53 W/m2
19:42 66.2 °F 56.5 °F 30 in West 0.9 mph 2 mph 71% 0 in 54 W/m2
19:47 66.2 °F 56.8 °F 30 in WNW 2 mph 3 mph 72% 0 in 58 W/m2
19:52 66 °F 56.7 °F 30 in WNW 2 mph 3 mph 72% 0 in 63 W/m2
19:57 66 °F 57.2 °F 30 in West 0.9 mph 4 mph 73% 0 in 63 W/m2
20:02 66 °F 57.2 °F 30 in West 2 mph 3 mph 73% 0 in 62 W/m2
20:07 66 °F 57.6 °F 30 in West 2.9 mph 3 mph 74% 0 in 58 W/m2
20:12 65.8 °F 57 °F 30 in WNW 2 mph 4 mph 73% 0 in 54 W/m2
20:17 65.8 °F 57.4 °F 30 in WNW 2.9 mph 7 mph 74% 0 in 51 W/m2
20:22 65.8 °F 57.4 °F 30 in West 2.9 mph 3 mph 74% 0 in 47 W/m2
20:27 65.7 °F 57.6 °F 30 in West 2.9 mph 7 mph 75% 0 in 44 W/m2
20:32 65.7 °F 57.6 °F 30 in West 2 mph 2 mph 75% 0 in 44 W/m2
20:37 65.7 °F 57.9 °F 30 in West 4 mph 4 mph 76% 0 in 40 W/m2
20:42 65.5 °F 57.7 °F 30 in West 0.9 mph 4 mph 76% 0 in 33 W/m2
20:47 65.3 °F 57.6 °F 30 in West 0.9 mph 3 mph 76% 0 in 28 W/m2
20:52 65.1 °F 57.4 °F 30 in WSW 2 mph 3 mph 76% 0 in 23 W/m2
20:57 65.1 °F 57.4 °F 30 in West 2 mph 4 mph 76% 0 in 19 W/m2
21:02 64.9 °F 57.6 °F 30 in West 2 mph 2 mph 77% 0 in 16 W/m2
21:07 64.9 °F 57.6 °F 30 in West 2 mph 4 mph 77% 0 in 12 W/m2
21:12 64.8 °F 57.4 °F 30 in West 2.9 mph 4 mph 77% 0 in 11 W/m2
21:17 64.6 °F 57.6 °F 30 in West 0.9 mph 2 mph 78% 0 in 7 W/m2
21:22 64.4 °F 57.4 °F 30 in SW 2 mph 3 mph 78% 0 in 7 W/m2
21:27 64.2 °F 57.2 °F 30 in SW 0.9 mph 1 mph 78% 0 in 5 W/m2
21:32 64.2 °F 57.2 °F 30 in WSW 0.9 mph 4 mph 78% 0 in 0 W/m2
21:37 64 °F 57 °F 30 in Calm   2 mph 78% 0 in 0 W/m2
21:42 63.9 °F 56.8 °F 30 in Calm   4 mph 78% 0 in 0 W/m2
21:48 63.9 °F 56.5 °F 30 in West 0.9 mph 4 mph 77% 0 in 0 W/m2
21:53 63.9 °F 56.5 °F 30 in West 0.9 mph 2 mph 77% 0 in 0 W/m2
21:58 63.9 °F 56.8 °F 30 in Calm   3 mph 78% 0 in 0 W/m2
22:03 63.7 °F 56.7 °F 30 in West 0.9 mph 2 mph 78% 0 in 0 W/m2
22:08 63.7 °F 56.7 °F 30 in Calm   3 mph 78% 0 in 0 W/m2
22:13 63.5 °F 56.5 °F 30 in WSW 0.9 mph 2 mph 78% 0 in 0 W/m2
22:18 63.3 °F 56.7 °F 30 in Calm   2 mph 79% 0 in 0 W/m2
22:23 63.1 °F 56.5 °F 30 in Calm     79% 0 in 0 W/m2
22:28 63 °F 56.7 °F 30 in Calm   2 mph 80% 0 in 0 W/m2
22:33 62.8 °F 56.5 °F 30 in Calm     80% 0 in 0 W/m2
22:38 62.6 °F 56.7 °F 30 in Calm     81% 0 in 0 W/m2
22:43 62.2 °F 56.7 °F 30 in Calm     82% 0 in 0 W/m2
22:48 62.1 °F 56.5 °F 30 in Calm     82% 0 in 0 W/m2
22:53 61.9 °F 56.7 °F 30 in Calm     83% 0 in 0 W/m2
22:58 61.7 °F 56.5 °F 30 in Calm     83% 0 in 0 W/m2
23:03 61.5 °F 56.7 °F 30 in Calm     84% 0 in 0 W/m2
23:08 61.3 °F 56.8 °F 30 in Calm     85% 0 in 0 W/m2
23:13 61.2 °F 56.7 °F 30 in Calm     85% 0 in 0 W/m2
23:18 61 °F 56.8 °F 30 in Calm     86% 0 in 0 W/m2
23:23 61 °F 56.8 °F 30 in West 0.9 mph 3 mph 86% 0 in 0 W/m2
23:28 61 °F 56.8 °F 30 in West 2.9 mph 3 mph 86% 0 in 0 W/m2
23:33 61.3 °F 56.8 °F 30 in West 0.9 mph 4 mph 85% 0 in 0 W/m2
23:38 61.5 °F 56.7 °F 30 in WSW 2 mph 4 mph 84% 0 in 0 W/m2
23:43 61.9 °F 56.7 °F 30 in WNW 0.9 mph 2 mph 83% 0 in 0 W/m2
23:48 62.1 °F 56.8 °F 30 in Calm   4 mph 83% 0 in 0 W/m2
23:53 62.2 °F 56.7 °F 30 in West 2.9 mph 4 mph 82% 0 in 0 W/m2
23:58 62.2 °F 56.3 °F 30 in West 2.9 mph 5 mph 81% 0 in 0 W/m2
Juneau County Weather
Compliments of Weather Underground - 4 mb